Map

Track Data

SID SEASON NUMBER BASIN SUBBASIN NAME ISO_TIME NATURE LAT LON WMO_WIND WMO_PRES WMO_AGENCY TRACK_TYPE DIST2LAND LANDFALL IFLAG USA_AGENCY USA_ATCF_ID USA_LAT USA_LON USA_RECORD USA_STATUS USA_WIND USA_PRES USA_SSHS USA_R34_NE USA_R34_SE USA_R34_SW USA_R34_NW USA_R50_NE USA_R50_SE USA_R50_SW USA_R50_NW USA_R64_NE USA_R64_SE USA_R64_SW USA_R64_NW USA_POCI USA_ROCI USA_RMW USA_EYE TOKYO_LAT TOKYO_LON TOKYO_GRADE TOKYO_WIND TOKYO_PRES TOKYO_R50_DIR TOKYO_R50_LONG TOKYO_R50_SHORT TOKYO_R30_DIR TOKYO_R30_LONG TOKYO_R30_SHORT TOKYO_LAND CMA_LAT CMA_LON CMA_CAT CMA_WIND CMA_PRES HKO_LAT HKO_LON HKO_CAT HKO_WIND HKO_PRES NEWDELHI_LAT NEWDELHI_LON NEWDELHI_GRADE NEWDELHI_WIND NEWDELHI_PRES NEWDELHI_CI NEWDELHI_DP NEWDELHI_POCI REUNION_LAT REUNION_LON REUNION_TYPE REUNION_WIND REUNION_PRES REUNION_TNUM REUNION_CI REUNION_RMW REUNION_R34_NE REUNION_R34_SE REUNION_R34_SW REUNION_R34_NW REUNION_R50_NE REUNION_R50_SE REUNION_R50_SW REUNION_R50_NW REUNION_R64_NE REUNION_R64_SE REUNION_R64_SW REUNION_R64_NW BOM_LAT BOM_LON BOM_TYPE BOM_WIND BOM_PRES BOM_TNUM BOM_CI BOM_RMW BOM_R34_NE BOM_R34_SE BOM_R34_SW BOM_R34_NW BOM_R50_NE BOM_R50_SE BOM_R50_SW BOM_R50_NW BOM_R64_NE BOM_R64_SE BOM_R64_SW BOM_R64_NW BOM_ROCI BOM_POCI BOM_EYE BOM_POS_METHOD BOM_PRES_METHOD NADI_LAT NADI_LON NADI_CAT NADI_WIND NADI_PRES WELLINGTON_LAT WELLINGTON_LON WELLINGTON_WIND WELLINGTON_PRES DS824_LAT DS824_LON DS824_STAGE DS824_WIND DS824_PRES TD9636_LAT TD9636_LON TD9636_STAGE TD9636_WIND TD9636_PRES TD9635_LAT TD9635_LON TD9635_WIND TD9635_PRES TD9635_ROCI NEUMANN_LAT NEUMANN_LON NEUMANN_CLASS NEUMANN_WIND NEUMANN_PRES MLC_LAT MLC_LON MLC_CLASS MLC_WIND MLC_PRES USA_GUST BOM_GUST BOM_GUST_PER REUNION_GUST REUNION_GUST_PER USA_SEAHGT USA_SEARAD_NE USA_SEARAD_SE USA_SEARAD_SW USA_SEARAD_NW STORM_SPEED STORM_DIR
1935242N20274 1935 47 NA CS NOT_NAMED 1935-08-30 00:00:00 TS 20.5000 -86.0000 25 hurdat_atl main 98 53 O_____________ hurdat_atl AL041935 20.5000 -86.0000 TD 25 -1 9 270
1935242N20274 1935 47 NA CS NOT_NAMED 1935-08-30 03:00:00 TS 20.5003 -86.5000 main 53 23 P_____________ AL041935 20.5003 -86.5000 TD 25 -1 9 270
1935242N20274 1935 47 NA CS NOT_NAMED 1935-08-30 06:00:00 TS 20.5000 -87.0000 25 hurdat_atl main 23 0 O_____________ hurdat_atl AL041935 20.5000 -87.0000 TD 25 -1 9 270
1935242N20274 1935 47 NA NA NOT_NAMED 1935-08-30 09:00:00 TS 20.4999 -87.5000 main 0 0 P_____________ AL041935 20.4999 -87.5000 TD 25 -1 9 270
1935242N20274 1935 47 NA NA NOT_NAMED 1935-08-30 12:00:00 TS 20.5000 -88.0000 25 hurdat_atl main 0 0 O_____________ hurdat_atl AL041935 20.5000 -88.0000 TD 25 -1 9 270
1935242N20274 1935 47 NA NA NOT_NAMED 1935-08-30 15:00:00 TS 20.5073 -88.4924 main 0 0 P_____________ AL041935 20.5073 -88.4924 TD 25 -1 9 270
1935242N20274 1935 47 NA NA NOT_NAMED 1935-08-30 18:00:00 TS 20.5000 -89.0000 25 hurdat_atl main 0 0 O_____________ hurdat_atl AL041935 20.5000 -89.0000 TD 25 -1 10 267
1935242N20274 1935 47 NA NA NOT_NAMED 1935-08-30 21:00:00 TS 20.4574 -89.5425 main 0 0 P_____________ AL041935 20.4574 -89.5425 TD 25 -1 10 264
1935242N20274 1935 47 NA NA NOT_NAMED 1935-08-31 00:00:00 TS 20.4000 -90.1000 25 hurdat_atl main 0 0 O_____________ hurdat_atl AL041935 20.4000 -90.1000 TD 25 -1 11 265
1935242N20274 1935 47 NA GM NOT_NAMED 1935-08-31 03:00:00 TS 20.3575 -90.6724 main 20 20 P_____________ AL041935 20.3575 -90.6724 TD 27 -1 10 264
1935242N20274 1935 47 NA GM NOT_NAMED 1935-08-31 06:00:00 TS 20.3000 -91.2000 30 hurdat_atl main 72 72 O_____________ hurdat_atl AL041935 20.3000 -91.2000 TD 30 -1 9 261
1935242N20274 1935 47 NA GM NOT_NAMED 1935-08-31 09:00:00 TS 20.2148 -91.6299 main 109 109 P_____________ AL041935 20.2148 -91.6299 TD 32 -1 8 255
1935242N20274 1935 47 NA GM NOT_NAMED 1935-08-31 12:00:00 TS 20.1000 -92.0000 35 hurdat_atl main 143 143 O_____________ hurdat_atl AL041935 20.1000 -92.0000 TS 35 0 7 251
1935242N20274 1935 47 NA GM NOT_NAMED 1935-08-31 15:00:00 TS 19.9724 -92.3649 main 155 134 P_____________ AL041935 19.9724 -92.3649 TS 37 0 7 245
1935242N20274 1935 47 NA GM NOT_NAMED 1935-08-31 18:00:00 TS 19.8000 -92.7000 40 hurdat_atl main 134 113 O_____________ hurdat_atl AL041935 19.8000 -92.7000 TS 40 0 7 235
1935242N20274 1935 47 NA GM NOT_NAMED 1935-08-31 21:00:00 TS 19.5499 -93.0076 main 105 98 P_____________ AL041935 19.5499 -93.0076 TS 42 0 8 229
1935242N20274 1935 47 NA GM NOT_NAMED 1935-09-01 00:00:00 TS 19.3000 -93.3000 45 hurdat_atl main 100 89 O_____________ hurdat_atl AL041935 19.3000 -93.3000 TS 45 0 7 233
1935242N20274 1935 47 NA GM NOT_NAMED 1935-09-01 03:00:00 TS 19.1275 -93.5999 main 89 78 P_____________ AL041935 19.1275 -93.5999 TS 47 0 6 242
1935242N20274 1935 47 NA GM NOT_NAMED 1935-09-01 06:00:00 TS 19.0000 -93.9000 50 hurdat_atl main 78 67 O_____________ hurdat_atl AL041935 19.0000 -93.9000 TS 50 0 6 247
1935242N20274 1935 47 NA GM NOT_NAMED 1935-09-01 09:00:00 TS 18.8849 -94.1925 main 74 54 P_____________ AL041935 18.8849 -94.1925 TS 50 0 6 251
1935242N20274 1935 47 NA GM NOT_NAMED 1935-09-01 12:00:00 TS 18.8000 -94.5000 50 hurdat_atl main 54 23 O_____________ hurdat_atl AL041935 18.8000 -94.5000 TS 50 0 6 257
1935242N20274 1935 47 NA GM NOT_NAMED 1935-09-01 15:00:00 TS 18.7424 -94.8349 main 23 0 P_____________ AL041935 18.7424 -94.8349 TS 50 0 7 261
1935242N20274 1935 47 NA GM NOT_NAMED 1935-09-01 18:00:00 TS 18.7000 -95.2000 50 hurdat_atl main 0 0 O_____________ hurdat_atl AL041935 18.7000 -95.2000 TS 50 0 7 263
1935242N20274 1935 47 NA NA NOT_NAMED 1935-09-01 21:00:00 TS 18.6499 -95.5850 main 0 0 P_____________ AL041935 18.6499 -95.5850 TS 42 0 8 262
1935242N20274 1935 47 NA NA NOT_NAMED 1935-09-02 00:00:00 TS 18.6000 -96.0000 35 hurdat_atl main 0 0 O_____________ hurdat_atl AL041935 18.6000 -96.0000 TS 35 0 8 263
1935242N20274 1935 47 NA NA NOT_NAMED 1935-09-02 03:00:00 TS 18.5498 -96.4275 main 0 0 P_____________ AL041935 18.5498 -96.4275 TS 32 -1 9 263
1935242N20274 1935 47 NA NA NOT_NAMED 1935-09-02 06:00:00 TS 18.5000 -96.9000 30 hurdat_atl main 0 0 O_____________ hurdat_atl AL041935 18.5000 -96.9000 TD 30 -1 10 264
1935242N20274 1935 47 NA NA NOT_NAMED 1935-09-02 09:00:00 TS 18.4504 -97.4326 main 0 0 P_____________ AL041935 18.4504 -97.4326 TD 27 -1 10 265
1935242N20274 1935 47 NA NA NOT_NAMED 1935-09-02 12:00:00 TS 18.4000 -98.0000 25 hurdat_atl main 0 O_____________ hurdat_atl AL041935 18.4000 -98.0000 TD 25 -1 11 265

About IBTrACS Database

This database is a web-friendly format of International Best Track Archive for Climate Stewardship (IBTrACS), a global best track data archive curated by NOAA dating back to 1842.

Updated: 2021-12-03